createdAt,value
2023-03-27T00:02:11.886Z,13.90
2023-03-27T00:07:13.538Z,13.20
2023-03-27T00:12:15.418Z,13.60
2023-03-27T00:17:17.429Z,13.70
2023-03-27T00:22:19.077Z,10.80
2023-03-27T00:27:20.979Z,13.20
2023-03-27T00:32:22.473Z,14.30
2023-03-27T00:37:24.011Z,15.30
2023-03-27T00:42:25.495Z,12.80
2023-03-27T00:47:33.972Z,11.10
2023-03-27T00:52:37.239Z,14.70
2023-03-27T00:57:39.152Z,11.70
2023-03-27T01:02:42.795Z,16.30
2023-03-27T01:08:00.512Z,14.50
2023-03-27T01:13:44.332Z,13.80
2023-03-27T01:19:05.129Z,13.90
2023-03-27T01:25:03.681Z,13.60
2023-03-27T01:30:26.160Z,13.20
2023-03-27T01:35:30.517Z,16.40
2023-03-27T01:40:56.228Z,13.00
2023-03-27T01:46:08.706Z,12.60
2023-03-27T01:51:30.427Z,15.40
2023-03-27T01:56:38.181Z,13.50
2023-03-27T02:01:46.630Z,15.60
2023-03-27T02:06:55.392Z,14.90
2023-03-27T02:12:20.227Z,14.60
2023-03-27T02:17:26.416Z,13.80
2023-03-27T02:22:37.434Z,16.00
2023-03-27T02:27:47.779Z,13.80
2023-03-27T02:33:04.210Z,16.80
2023-03-27T02:38:09.248Z,15.80
2023-03-27T02:43:43.209Z,15.00
2023-03-27T02:48:54.872Z,13.20
2023-03-27T02:54:02.808Z,16.10
2023-03-27T02:59:10.201Z,13.10
2023-03-27T03:04:41.940Z,14.30
2023-03-27T03:09:44.611Z,13.90
2023-03-27T03:14:46.551Z,9.90
2023-03-27T03:19:49.466Z,8.40
2023-03-27T03:24:51.021Z,17.30
2023-03-27T03:29:53.191Z,10.80
2023-03-27T03:34:56.908Z,11.10
2023-03-27T03:39:58.414Z,12.90
2023-03-27T03:44:59.959Z,13.30
2023-03-27T03:50:01.641Z,17.90
2023-03-27T03:55:04.662Z,12.50
2023-03-27T04:00:12.296Z,13.00
2023-03-27T04:05:13.787Z,18.60
2023-03-27T04:10:16.261Z,15.10
2023-03-27T04:15:18.266Z,12.50
2023-03-27T04:20:20.242Z,11.20
2023-03-27T04:25:24.565Z,14.00
2023-03-27T04:35:29.878Z,12.90
2023-03-27T04:40:31.377Z,16.10
2023-03-27T04:45:33.692Z,10.80
2023-03-27T04:50:36.012Z,10.90
2023-03-27T04:55:40.575Z,11.70
2023-03-27T05:00:42.457Z,15.90
2023-03-27T05:05:43.921Z,12.80
2023-03-27T05:10:46.768Z,13.10
2023-03-27T05:15:48.375Z,10.70
2023-03-27T05:20:50.229Z,9.60
2023-03-27T05:25:59.897Z,15.60
2023-03-27T05:31:02.524Z,13.50
2023-03-27T05:36:06.037Z,15.40
2023-03-27T05:41:07.889Z,16.20
2023-03-27T05:46:09.466Z,14.80
2023-03-27T05:51:11.254Z,14.40
2023-03-27T05:56:13.323Z,16.70
2023-03-27T06:01:14.954Z,16.00
2023-03-27T06:06:16.767Z,17.10
2023-03-27T06:11:18.273Z,13.50
2023-03-27T06:16:23.269Z,16.50
2023-03-27T06:21:25.365Z,15.20
2023-03-27T06:26:28.368Z,15.30
2023-03-27T06:31:30.165Z,14.70
2023-03-27T06:36:33.240Z,15.80
2023-03-27T06:41:34.771Z,13.40
2023-03-27T06:46:45.084Z,15.70
2023-03-27T06:51:47.422Z,12.70
2023-03-27T06:56:48.975Z,10.20
2023-03-27T07:01:53.836Z,12.70
2023-03-27T07:06:55.955Z,11.20
2023-03-27T07:11:57.440Z,10.20
2023-03-27T07:16:59.249Z,9.40
2023-03-27T07:22:00.975Z,10.20
2023-03-27T07:27:02.486Z,13.10
2023-03-27T07:32:08.613Z,8.50
2023-03-27T07:37:11.462Z,6.90
2023-03-27T07:42:13.009Z,7.40
2023-03-27T07:47:14.773Z,10.10
2023-03-27T07:52:16.747Z,8.00
2023-03-27T07:57:18.417Z,6.10
2023-03-27T08:02:20.303Z,7.60
2023-03-27T08:07:23.154Z,5.80
2023-03-27T08:12:25.390Z,6.90
2023-03-27T08:17:27.970Z,4.60
2023-03-27T08:22:29.643Z,4.80
2023-03-27T08:27:32.178Z,6.60
2023-03-27T08:32:33.816Z,6.00
2023-03-27T08:37:35.774Z,8.90
2023-03-27T08:42:42.273Z,11.60
2023-03-27T08:47:50.718Z,9.10
2023-03-27T08:52:52.481Z,13.10
2023-03-27T08:57:54.970Z,8.40
2023-03-27T09:03:10.782Z,11.10
2023-03-27T09:08:27.852Z,12.80
2023-03-27T09:13:38.262Z,9.20
2023-03-27T09:18:52.014Z,7.20
2023-03-27T09:23:59.295Z,6.90
2023-03-27T09:29:03.842Z,10.00
2023-03-27T09:34:08.136Z,6.50
2023-03-27T09:39:17.222Z,5.40
2023-03-27T09:44:25.428Z,4.50
2023-03-27T09:49:27.848Z,4.40
2023-03-27T09:54:29.728Z,3.50
2023-03-27T09:59:34.973Z,4.30
2023-03-27T10:04:36.746Z,3.00
2023-03-27T10:09:40.624Z,2.90
2023-03-27T10:14:50.543Z,3.20
2023-03-27T10:20:24.336Z,3.10
2023-03-27T10:25:28.849Z,3.30
2023-03-27T10:30:38.738Z,2.90
2023-03-27T10:35:44.153Z,2.90
2023-03-27T10:40:50.729Z,3.00
2023-03-27T10:45:56.302Z,3.50
2023-03-27T10:51:04.052Z,2.60
2023-03-27T10:56:11.814Z,4.50
2023-03-27T11:01:35.390Z,2.80
2023-03-27T11:06:42.090Z,2.10
2023-03-27T11:11:57.920Z,2.80
2023-03-27T11:17:05.268Z,3.20
2023-03-27T11:22:32.226Z,2.40
2023-03-27T11:27:43.212Z,2.30
2023-03-27T11:32:54.291Z,2.50
2023-03-27T11:38:17.382Z,2.70
2023-03-27T11:43:20.509Z,4.60
2023-03-27T11:48:56.866Z,2.60
2023-03-27T11:54:01.728Z,3.00
2023-03-27T11:59:18.258Z,3.00
2023-03-27T12:04:29.023Z,2.60
2023-03-27T12:09:40.603Z,2.30
2023-03-27T12:14:48.288Z,3.00
2023-03-27T12:19:59.157Z,3.50
2023-03-27T12:25:38.496Z,3.20
2023-03-27T12:30:57.769Z,2.70
2023-03-27T12:36:05.782Z,3.10
2023-03-27T12:41:26.101Z,2.60
2023-03-27T12:46:33.413Z,2.90
2023-03-27T12:52:02.856Z,1.80
2023-03-27T12:57:21.246Z,2.70
2023-03-27T13:02:35.830Z,2.90
2023-03-27T13:08:04.729Z,2.10
2023-03-27T13:13:19.535Z,2.50
2023-03-27T13:18:52.279Z,2.40
2023-03-27T13:24:02.806Z,2.80
2023-03-27T13:29:15.957Z,2.90
2023-03-27T13:34:32.729Z,2.80
2023-03-27T13:40:19.867Z,2.40
2023-03-27T13:45:47.158Z,2.30
2023-03-27T13:51:01.908Z,2.50
2023-03-27T13:56:12.169Z,2.20
2023-03-27T14:01:17.162Z,2.90
2023-03-27T14:06:54.652Z,2.50
2023-03-27T14:12:19.730Z,2.00
2023-03-27T14:17:40.613Z,2.80
2023-03-27T14:22:54.609Z,2.10
2023-03-27T14:27:56.436Z,3.00
2023-03-27T14:33:06.768Z,2.60
2023-03-27T14:38:24.891Z,3.90
2023-03-27T14:43:28.999Z,3.80
2023-03-27T14:48:31.066Z,2.60
2023-03-27T14:53:36.719Z,1.80
2023-03-27T14:58:46.601Z,2.20
2023-03-27T15:03:51.734Z,3.10
2023-03-27T15:08:56.286Z,2.60
2023-03-27T15:13:57.774Z,2.70
2023-03-27T15:19:04.950Z,2.00
2023-03-27T15:24:13.520Z,3.20
2023-03-27T15:29:29.072Z,1.80
2023-03-27T15:34:36.430Z,2.60
2023-03-27T15:40:52.660Z,2.80
2023-03-27T15:45:59.013Z,3.10
2023-03-27T15:51:21.083Z,2.80
2023-03-27T15:56:42.887Z,3.50
2023-03-27T16:07:14.052Z,2.80
2023-03-27T16:12:18.411Z,2.20
2023-03-27T16:17:32.578Z,2.10
2023-03-27T16:22:37.417Z,1.90
2023-03-27T16:27:50.271Z,2.70
2023-03-27T16:32:51.764Z,1.90
2023-03-27T16:37:54.702Z,2.00
2023-03-27T16:42:56.367Z,2.40
2023-03-27T16:47:58.040Z,3.00
2023-03-27T16:52:59.660Z,2.20
2023-03-27T16:58:03.326Z,4.40
2023-03-27T17:03:05.122Z,3.00
2023-03-27T17:08:07.501Z,3.40
2023-03-27T17:13:09.392Z,3.70
2023-03-27T17:18:11.182Z,3.00
2023-03-27T17:23:12.921Z,3.50
2023-03-27T17:28:14.849Z,3.50
2023-03-27T17:33:17.472Z,2.60
2023-03-27T17:38:20.888Z,3.40
2023-03-27T17:43:22.394Z,3.00
2023-03-27T17:48:23.988Z,2.50
2023-03-27T17:53:27.479Z,2.70
2023-03-27T17:58:29.150Z,2.50
2023-03-27T18:03:30.952Z,2.10
2023-03-27T18:08:32.950Z,2.70
2023-03-27T18:13:34.719Z,2.60
2023-03-27T18:18:39.828Z,3.40
2023-03-27T18:23:46.008Z,2.30
2023-03-27T18:28:48.554Z,1.90
2023-03-27T18:33:50.381Z,2.20
2023-03-27T18:38:52.234Z,2.20
2023-03-27T18:43:54.140Z,2.50
2023-03-27T18:48:55.856Z,3.10
2023-03-27T18:53:58.293Z,2.60
2023-03-27T18:58:59.894Z,3.30
2023-03-27T19:04:03.945Z,2.10
2023-03-27T19:09:05.594Z,2.50
2023-03-27T19:14:08.004Z,2.70
2023-03-27T19:19:09.793Z,2.20
2023-03-27T19:24:11.353Z,2.20
2023-03-27T19:29:12.849Z,2.90
2023-03-27T19:34:14.372Z,3.60
2023-03-27T19:39:16.065Z,2.90
2023-03-27T19:44:19.877Z,3.10
2023-03-27T19:49:21.405Z,2.00
2023-03-27T19:54:22.918Z,2.90
2023-03-27T19:59:30.482Z,2.60
2023-03-27T20:04:32.484Z,3.60
2023-03-27T20:09:34.603Z,3.20
2023-03-27T20:14:36.541Z,2.70
2023-03-27T20:19:38.123Z,3.10
2023-03-27T20:24:40.328Z,2.30
2023-03-27T20:29:41.905Z,2.40
2023-03-27T20:34:46.420Z,3.70
2023-03-27T20:39:47.946Z,2.10
2023-03-27T20:44:55.175Z,3.30
2023-03-27T20:49:59.100Z,2.60
2023-03-27T20:55:00.985Z,3.00
2023-03-27T21:00:07.158Z,2.40
2023-03-27T21:05:08.895Z,5.10
2023-03-27T21:10:11.213Z,2.30
2023-03-27T21:15:13.879Z,2.30
2023-03-27T21:20:15.912Z,2.70
2023-03-27T21:25:17.656Z,2.60
2023-03-27T21:30:19.188Z,2.10
2023-03-27T21:35:21.079Z,3.90
2023-03-27T21:40:22.698Z,2.60
2023-03-27T21:45:24.184Z,2.00
2023-03-27T21:50:26.009Z,2.30
2023-03-27T21:55:27.716Z,1.80
2023-03-27T22:00:29.261Z,2.90
2023-03-27T22:05:30.791Z,2.10
2023-03-27T22:10:34.383Z,2.40
2023-03-27T22:15:36.326Z,2.60
2023-03-27T22:20:37.933Z,2.30
2023-03-27T22:25:39.450Z,2.60
2023-03-27T22:30:41.775Z,2.90
2023-03-27T22:35:49.689Z,2.10
2023-03-27T22:40:51.363Z,2.70
2023-03-27T22:45:52.856Z,2.20
2023-03-27T22:50:56.509Z,2.30
2023-03-27T22:55:59.691Z,2.20
2023-03-27T23:01:02.890Z,2.60
2023-03-27T23:06:04.693Z,1.50
2023-03-27T23:11:06.759Z,1.80
2023-03-27T23:16:09.757Z,1.70
2023-03-27T23:21:13.998Z,2.30
2023-03-27T23:26:16.187Z,1.90
2023-03-27T23:31:20.087Z,1.90
2023-03-27T23:36:23.875Z,3.80
2023-03-27T23:41:25.461Z,2.70
2023-03-27T23:46:27.228Z,3.80
2023-03-27T23:51:28.858Z,3.00
2023-03-27T23:56:30.457Z,2.70
